createdAt,value
2023-10-23T05:01:59.970Z,99897.94
2023-10-23T05:04:29.737Z,99890.88
2023-10-23T05:06:56.853Z,99889.13
2023-10-23T05:09:23.809Z,99894.59
2023-10-23T05:11:50.379Z,99901.91
2023-10-23T05:14:17.619Z,99901.19
2023-10-23T05:16:44.323Z,99908.22
2023-10-23T05:19:11.199Z,99912.81
2023-10-23T05:21:38.849Z,99913.03
2023-10-23T05:24:06.235Z,99905.13
2023-10-23T05:26:33.094Z,99903.38
2023-10-23T05:29:00.327Z,99902.69
2023-10-23T05:31:27.047Z,99905.59
2023-10-23T05:33:54.438Z,99907.34
2023-10-23T05:36:20.984Z,99918.19
2023-10-23T05:38:47.695Z,99911.94
2023-10-23T05:41:14.300Z,99920.06
2023-10-23T05:43:40.902Z,99926.31
2023-10-23T05:46:08.123Z,99917.53
2023-10-23T05:48:35.151Z,99930.00
2023-10-23T05:51:04.165Z,99935.88
2023-10-23T05:53:30.889Z,99937.59
2023-10-23T05:56:05.292Z,99942.00
2023-10-23T05:58:32.582Z,99939.28
2023-10-23T06:01:06.766Z,99930.38
2023-10-23T06:03:33.673Z,99940.84
2023-10-23T06:06:01.005Z,99936.44
2023-10-23T06:08:27.558Z,99934.59
2023-10-23T06:10:55.246Z,99941.72
2023-10-23T06:13:24.704Z,99941.63
2023-10-23T06:15:52.548Z,99948.56
2023-10-23T06:18:19.350Z,99944.09
2023-10-23T06:20:46.763Z,99949.38
2023-10-23T06:23:13.545Z,99955.56
2023-10-23T06:25:41.309Z,99945.78
2023-10-23T06:28:08.453Z,99944.84
2023-10-23T06:30:36.355Z,99951.09
2023-10-23T06:33:03.980Z,99946.63
2023-10-23T06:35:31.408Z,99945.69
2023-10-23T06:37:58.105Z,99946.47
2023-10-23T06:40:25.303Z,99952.34
2023-10-23T06:42:51.846Z,99946.84
2023-10-23T06:45:19.281Z,99944.00
2023-10-23T06:47:48.483Z,99943.72
2023-10-23T06:50:16.008Z,99949.78
2023-10-23T06:52:43.470Z,99947.91
2023-10-23T06:55:10.791Z,99947.06
2023-10-23T06:57:38.108Z,99948.66
2023-10-23T07:00:05.367Z,99943.06
2023-10-23T07:02:32.219Z,99955.13
2023-10-23T07:04:58.768Z,99955.72
2023-10-23T07:07:30.024Z,99950.31
2023-10-23T07:10:03.152Z,99954.72
2023-10-23T07:12:30.450Z,99954.66
2023-10-23T07:14:57.010Z,99950.97
2023-10-23T07:17:26.405Z,99944.66
2023-10-23T07:19:53.060Z,99952.66
2023-10-23T07:22:21.101Z,99955.97
2023-10-23T07:24:47.637Z,99951.59
2023-10-23T07:27:17.929Z,99948.94
2023-10-23T07:29:45.073Z,99948.78
2023-10-23T07:32:12.395Z,99956.72
2023-10-23T07:34:39.215Z,99946.91
2023-10-23T07:37:06.227Z,99951.16
2023-10-23T07:39:34.850Z,99950.31
2023-10-23T07:42:02.984Z,99959.97
2023-10-23T07:44:29.519Z,99960.78
2023-10-23T07:46:56.813Z,99952.72
2023-10-23T07:49:24.558Z,99956.28
2023-10-23T07:52:02.161Z,99952.63
2023-10-23T07:54:28.837Z,99963.09
2023-10-23T07:57:00.785Z,99967.47
2023-10-23T07:59:29.803Z,99974.47
2023-10-23T08:01:57.772Z,99966.41
2023-10-23T08:04:24.522Z,99970.81
2023-10-23T08:06:51.586Z,99969.66
2023-10-23T08:09:18.360Z,99967.00
2023-10-23T08:11:46.344Z,99964.84
2023-10-23T08:14:12.892Z,99964.72
2023-10-23T08:16:40.131Z,99961.91
2023-10-23T08:19:07.122Z,99962.63
2023-10-23T08:21:36.801Z,99957.09
2023-10-23T08:24:04.710Z,99954.78
2023-10-23T08:26:31.562Z,99966.75
2023-10-23T08:29:03.135Z,99961.25
2023-10-23T08:31:40.191Z,99952.19
2023-10-23T08:34:11.950Z,99960.56
2023-10-23T08:36:42.922Z,99961.16
2023-10-23T08:39:10.160Z,99957.97
2023-10-23T08:41:40.207Z,99962.56
2023-10-23T08:44:12.582Z,99950.59
2023-10-23T08:46:43.637Z,99955.66
2023-10-23T08:49:18.277Z,99945.44
2023-10-23T08:51:48.748Z,99941.03
2023-10-23T08:54:19.711Z,99945.28
2023-10-23T08:56:50.592Z,99945.69
2023-10-23T08:59:19.962Z,99947.19
2023-10-23T09:01:48.312Z,99943.25
2023-10-23T09:04:18.760Z,99936.78
2023-10-23T09:06:45.436Z,99932.94
2023-10-23T09:09:13.322Z,99933.03
2023-10-23T09:11:48.275Z,99929.63
2023-10-23T09:14:37.560Z,99930.44
2023-10-23T09:17:09.565Z,99932.88
2023-10-23T09:19:45.106Z,99929.06
2023-10-23T09:22:14.803Z,99921.78
2023-10-23T09:24:46.601Z,99924.28
2023-10-23T09:27:14.959Z,99916.03
2023-10-23T09:30:07.017Z,99920.88
2023-10-23T09:32:33.590Z,99920.22
2023-10-23T09:35:01.025Z,99914.69
2023-10-23T09:37:28.179Z,99911.59
2023-10-23T09:39:55.253Z,99906.00
2023-10-23T09:42:24.870Z,99908.50
2023-10-23T09:44:52.369Z,99906.97
2023-10-23T09:47:19.738Z,99913.84
2023-10-23T09:49:47.953Z,99904.78
2023-10-23T09:52:15.439Z,99903.66
2023-10-23T09:54:46.089Z,99902.19
2023-10-23T09:57:15.006Z,99906.75
2023-10-23T09:59:46.994Z,99906.00
2023-10-23T10:02:15.668Z,99909.59
2023-10-23T10:04:51.226Z,99903.16
2023-10-23T10:07:41.272Z,99902.41
2023-10-23T10:10:09.158Z,99899.16
2023-10-23T10:12:39.307Z,99898.19
2023-10-23T10:15:13.304Z,99896.47
2023-10-23T10:17:44.844Z,99899.41
2023-10-23T10:20:12.496Z,99893.09
2023-10-23T10:22:43.169Z,99888.34
2023-10-23T10:25:11.154Z,99889.13
2023-10-23T10:27:38.112Z,99888.34
2023-10-23T10:30:06.123Z,99884.72
2023-10-23T10:32:34.347Z,99885.72
2023-10-23T10:35:41.563Z,99889.03
2023-10-23T10:38:15.452Z,99877.31
2023-10-23T10:41:00.646Z,99875.88
2023-10-23T10:43:31.356Z,99872.59
2023-10-23T10:45:57.948Z,99872.47
2023-10-23T10:48:26.182Z,99882.41
2023-10-23T10:50:53.285Z,99883.25
2023-10-23T10:53:19.801Z,99873.31
2023-10-23T10:55:46.983Z,99876.19
2023-10-23T10:58:13.693Z,99869.53
2023-10-23T11:00:40.413Z,99860.72
2023-10-23T11:03:07.587Z,99865.81
2023-10-23T11:05:34.716Z,99853.22
2023-10-23T11:08:01.285Z,99849.22
2023-10-23T11:10:28.208Z,99841.94
2023-10-23T11:12:54.808Z,99852.91
2023-10-23T11:15:22.121Z,99839.91
2023-10-23T11:17:50.935Z,99838.94
2023-10-23T11:20:18.253Z,99843.16
2023-10-23T11:22:45.665Z,99839.25
2023-10-23T11:25:13.049Z,99833.34
2023-10-23T11:27:39.785Z,99828.50
2023-10-23T11:30:07.299Z,99840.97
2023-10-23T11:32:34.056Z,99836.41
2023-10-23T11:35:05.690Z,99828.16
2023-10-23T11:37:39.221Z,99826.13
2023-10-23T11:40:07.687Z,99820.19
2023-10-23T11:42:44.380Z,99811.88
2023-10-23T11:45:13.411Z,99807.00
2023-10-23T11:47:41.448Z,99806.22
2023-10-23T11:50:08.997Z,99805.44
2023-10-23T11:52:36.231Z,99807.00
2023-10-23T11:55:05.181Z,99806.41
2023-10-23T11:57:33.580Z,99803.16
2023-10-23T12:00:02.077Z,99805.41
2023-10-23T12:02:39.464Z,99796.72
2023-10-23T12:05:07.634Z,99791.28
2023-10-23T12:07:35.116Z,99785.13
2023-10-23T12:10:01.789Z,99791.28
2023-10-23T12:12:29.954Z,99789.16
2023-10-23T12:14:56.481Z,99785.72
2023-10-23T12:17:23.601Z,99781.59
2023-10-23T12:19:50.154Z,99780.56
2023-10-23T12:22:17.382Z,99771.25
2023-10-23T12:24:43.906Z,99766.28
2023-10-23T12:27:10.975Z,99771.00
2023-10-23T12:29:37.457Z,99752.50
2023-10-23T12:32:05.729Z,99762.19
2023-10-23T12:34:32.954Z,99755.06
2023-10-23T12:37:00.574Z,99757.03
2023-10-23T12:39:27.400Z,99761.69
2023-10-23T12:41:54.757Z,99755.06
2023-10-23T12:44:21.325Z,99747.91
2023-10-23T12:46:51.457Z,99744.34
2023-10-23T12:49:18.436Z,99746.28
2023-10-23T12:51:46.240Z,99751.81
2023-10-23T12:54:12.876Z,99739.19
2023-10-23T12:56:40.028Z,99738.34
2023-10-23T12:59:06.562Z,99730.94
2023-10-23T13:01:33.774Z,99733.47
2023-10-23T13:04:00.966Z,99736.88
2023-10-23T13:06:28.227Z,99739.69
2023-10-23T13:08:54.776Z,99732.50
2023-10-23T13:11:21.501Z,99736.88
2023-10-23T13:13:48.601Z,99731.72
2023-10-23T13:16:16.100Z,99722.75
2023-10-23T13:18:53.578Z,99717.19
2023-10-23T13:21:30.475Z,99718.22
2023-10-23T13:24:00.790Z,99719.50
2023-10-23T13:26:27.301Z,99713.16
2023-10-23T13:28:54.462Z,99710.88
2023-10-23T13:31:21.057Z,99698.41
2023-10-23T13:33:48.448Z,99704.34
2023-10-23T13:36:15.023Z,99686.25
2023-10-23T13:38:42.168Z,99685.38
2023-10-23T13:41:08.765Z,99690.56
2023-10-23T13:43:35.970Z,99681.84
2023-10-23T13:46:02.560Z,99679.16
2023-10-23T13:48:29.857Z,99676.75
2023-10-23T13:50:56.366Z,99674.22
2023-10-23T13:53:24.248Z,99664.53
2023-10-23T13:55:51.829Z,99660.88
2023-10-23T13:58:19.669Z,99657.47
2023-10-23T14:00:46.440Z,99657.63
2023-10-23T14:03:13.651Z,99658.91
2023-10-23T14:05:40.342Z,99652.13
2023-10-23T14:08:08.698Z,99648.09
2023-10-23T14:10:35.326Z,99651.00
2023-10-23T14:13:02.517Z,99644.84
2023-10-23T14:15:29.065Z,99645.22
2023-10-23T14:17:57.318Z,99645.16
2023-10-23T14:20:25.321Z,99642.47
2023-10-23T14:22:53.901Z,99637.38
2023-10-23T14:25:20.542Z,99634.91
2023-10-23T14:27:47.366Z,99632.31
2023-10-23T14:30:14.660Z,99629.00
2023-10-23T14:32:43.582Z,99623.06
2023-10-23T14:35:11.262Z,99617.00
2023-10-23T14:37:37.848Z,99617.00
2023-10-23T14:40:07.212Z,99618.94
2023-10-23T14:42:33.772Z,99604.69
2023-10-23T14:45:01.212Z,99593.22
2023-10-23T14:47:27.723Z,99598.94
2023-10-23T14:49:55.272Z,99590.19
2023-10-23T14:52:21.824Z,99601.63
2023-10-23T14:54:49.063Z,99597.25
2023-10-23T14:57:15.542Z,99606.03
2023-10-23T14:59:42.539Z,99595.53
2023-10-23T15:02:09.165Z,99593.91
2023-10-23T15:04:37.544Z,99590.53
2023-10-23T15:07:04.523Z,99592.44
2023-10-23T15:09:32.269Z,99586.44
2023-10-23T15:11:58.801Z,99585.97
2023-10-23T15:14:25.952Z,99588.06
2023-10-23T15:16:52.457Z,99577.53
2023-10-23T15:19:19.814Z,99572.56
2023-10-23T15:21:46.346Z,99568.94
2023-10-23T15:24:13.421Z,99565.50
2023-10-23T15:26:40.283Z,99565.69
2023-10-23T15:29:07.650Z,99557.09
2023-10-23T15:31:34.247Z,99557.38
2023-10-23T15:34:01.220Z,99554.31
2023-10-23T15:36:28.709Z,99551.81
2023-10-23T15:38:55.593Z,99545.78
2023-10-23T15:41:22.715Z,99544.09
2023-10-23T15:43:52.230Z,99546.00
2023-10-23T15:46:19.205Z,99544.44
2023-10-23T15:48:46.305Z,99531.38
2023-10-23T15:51:13.562Z,99538.81
2023-10-23T15:53:40.173Z,99529.16
2023-10-23T15:56:07.836Z,99534.50
2023-10-23T15:58:36.254Z,99532.28
2023-10-23T16:01:07.015Z,99539.00
2023-10-23T16:03:35.141Z,99525.25
2023-10-23T16:06:09.837Z,99529.25
2023-10-23T16:08:37.313Z,99527.69
2023-10-23T16:11:04.762Z,99528.66
2023-10-23T16:13:37.808Z,99522.03
2023-10-23T16:16:15.147Z,99523.25
2023-10-23T16:18:45.018Z,99527.22
2023-10-23T16:21:15.910Z,99524.72
2023-10-23T16:23:42.879Z,99522.84
2023-10-23T16:26:10.076Z,99518.91
2023-10-23T16:28:36.676Z,99524.50
2023-10-23T16:31:04.041Z,99519.34
2023-10-23T16:33:30.817Z,99507.09
2023-10-23T16:35:57.578Z,99503.66
2023-10-23T16:38:24.981Z,99503.66
2023-10-23T16:40:51.507Z,99503.84
2023-10-23T16:43:20.217Z,99504.13
2023-10-23T16:45:46.823Z,99501.44
2023-10-23T16:48:14.464Z,99497.72
2023-10-23T16:50:41.073Z,99489.69
2023-10-23T16:53:07.895Z,99493.25
2023-10-23T16:55:34.455Z,99486.09
2023-10-23T16:58:01.692Z,99483.44
2023-10-23T17:00:28.331Z,99480.75
2023-10-23T17:02:55.786Z,99480.59
2023-10-23T17:05:22.476Z,99477.13
2023-10-23T17:07:49.680Z,99471.78
2023-10-23T17:10:17.931Z,99473.53
2023-10-23T17:12:45.178Z,99465.59
2023-10-23T17:15:11.752Z,99463.78
2023-10-23T17:17:38.553Z,99468.19
2023-10-23T17:20:05.843Z,99456.81
2023-10-23T17:22:34.675Z,99456.81
2023-10-23T17:25:01.235Z,99453.38
2023-10-23T17:27:29.329Z,99450.53
2023-10-23T17:29:55.795Z,99445.28
2023-10-23T17:32:22.389Z,99446.97
2023-10-23T17:34:48.878Z,99455.94
2023-10-23T17:37:16.038Z,99463.19
2023-10-23T17:39:42.615Z,99462.44
2023-10-23T17:42:09.895Z,99458.03
2023-10-23T17:44:36.395Z,99468.72
2023-10-23T17:47:05.174Z,99461.56
2023-10-23T17:49:31.800Z,99467.66
2023-10-23T17:51:58.794Z,99462.50
2023-10-23T17:54:25.919Z,99468.63
2023-10-23T17:56:52.446Z,99464.94
2023-10-23T17:59:19.289Z,99463.38
2023-10-23T18:01:45.982Z,99461.47
2023-10-23T18:04:13.331Z,99462.44
2023-10-23T18:06:39.946Z,99461.47
2023-10-23T18:09:07.178Z,99453.47
2023-10-23T18:11:34.212Z,99446.41
2023-10-23T18:14:01.659Z,99440.13
2023-10-23T18:16:29.031Z,99428.66
2023-10-23T18:18:56.377Z,99417.97
2023-10-23T18:21:22.993Z,99408.25
2023-10-23T18:23:49.932Z,99402.06
2023-10-23T18:26:16.595Z,99399.28
2023-10-23T18:28:43.665Z,99391.00
2023-10-23T18:31:10.313Z,99386.72
2023-10-23T18:33:37.507Z,99387.38
2023-10-23T18:36:06.670Z,99377.53
2023-10-23T18:38:33.933Z,99366.88
2023-10-23T18:41:00.751Z,99354.28
2023-10-23T18:43:29.021Z,99348.75
2023-10-23T18:45:56.312Z,99340.00
2023-10-23T18:48:23.928Z,99340.16
2023-10-23T18:51:00.527Z,99342.09
2023-10-23T18:53:27.845Z,99352.66
2023-10-23T18:55:54.678Z,99357.06
2023-10-23T18:58:22.110Z,99354.41
2023-10-23T19:00:48.738Z,99349.13
2023-10-23T19:03:15.979Z,99349.13
2023-10-23T19:05:43.156Z,99339.63
2023-10-23T19:08:10.294Z,99327.19
2023-10-23T19:10:38.124Z,99324.53
2023-10-23T19:13:05.395Z,99331.59
2023-10-23T19:15:32.355Z,99330.06
2023-10-23T19:17:59.735Z,99323.00
2023-10-23T19:20:26.773Z,99314.22
2023-10-23T19:22:53.637Z,99315.06
2023-10-23T19:25:21.082Z,99311.44
2023-10-23T19:27:48.177Z,99324.91
2023-10-23T19:30:14.797Z,99326.03
2023-10-23T19:32:42.434Z,99343.00
2023-10-23T19:35:10.410Z,99346.44
2023-10-23T19:37:38.542Z,99350.06
2023-10-23T19:40:06.282Z,99349.19
2023-10-23T19:42:40.638Z,99352.91
2023-10-23T19:45:08.907Z,99353.88
2023-10-23T19:47:36.262Z,99354.59
2023-10-23T19:50:04.641Z,99343.84
2023-10-23T19:52:36.174Z,99345.09
2023-10-23T19:55:37.257Z,99345.09
2023-10-23T19:57:52.207Z,99339.94
2023-10-23T20:00:18.954Z,99336.13
2023-10-23T20:02:45.836Z,99332.50
2023-10-23T20:05:13.102Z,99320.03
2023-10-23T20:07:40.550Z,99312.88
2023-10-23T20:10:08.833Z,99301.34
2023-10-23T20:12:35.364Z,99307.34
2023-10-23T20:15:02.484Z,99308.88
2023-10-23T20:17:28.995Z,99312.41
2023-10-23T20:19:56.328Z,99312.22
2023-10-23T20:22:22.861Z,99310.50
2023-10-23T20:24:49.775Z,99308.63
2023-10-23T20:27:16.356Z,99318.53
2023-10-23T20:29:43.372Z,99318.31
